Time;durP1;ratioP1;P1;durP2;ratioP2;P2;SDS_P1;SDS_P2;PMS_P1;PMS_P2;Temp;Humidity;BMP_temperature;BMP_pressure;BME280_temperature;BME280_humidity;BME280_pressure;Samples;Min_cycle;Max_cycle;Signal;HPM_P1;HPM_P2
2022/11/18 00:02:19;;;;;;;3.45;2.10;;;7.50;60.20;;;;;;5014386;28;20039;-83
2022/11/18 00:04:45;;;;;;;2.95;2.15;;;7.50;60.30;;;;;;5018926;28;20033;-83
2022/11/18 00:07:11;;;;;;;2.65;2.30;;;7.50;60.10;;;;;;5016640;28;20432;-84
2022/11/18 00:09:37;;;;;;;2.70;2.33;;;7.50;60.20;;;;;;5014051;28;20038;-83
2022/11/18 00:14:48;;;;;;;2.80;2.17;;;7.50;60.50;;;;;;5016845;28;20041;-83
2022/11/18 00:17:13;;;;;;;3.92;2.38;;;7.50;61.10;;;;;;5015020;28;20091;-83
2022/11/18 00:19:40;;;;;;;2.42;2.15;;;7.50;60.20;;;;;;5014503;28;20030;-83
2022/11/18 00:22:08;;;;;;;2.35;2.15;;;7.50;60.10;;;;;;5015727;28;20037;-83
2022/11/18 00:24:34;;;;;;;3.90;2.33;;;7.40;60.00;;;;;;5013559;28;20044;-83
2022/11/18 00:27:00;;;;;;;2.92;2.40;;;7.50;60.00;;;;;;5003097;28;20030;-83
2022/11/18 00:29:27;;;;;;;2.38;2.13;;;7.40;59.70;;;;;;5014162;28;20054;-83
2022/11/18 00:31:54;;;;;;;4.15;2.20;;;7.40;59.60;;;;;;5013346;28;20033;-83
2022/11/18 00:34:20;;;;;;;3.95;2.53;;;7.40;59.50;;;;;;5014430;28;20104;-83
2022/11/18 00:36:46;;;;;;;3.10;2.33;;;7.40;59.40;;;;;;5003304;28;20512;-85
2022/11/18 00:39:15;;;;;;;4.43;2.25;;;7.40;59.60;;;;;;5014333;28;20030;-85
2022/11/18 00:44:25;;;;;;;3.10;2.17;;;7.40;59.40;;;;;;5015763;28;20026;-86
2022/11/18 00:46:52;;;;;;;3.10;2.10;;;7.40;59.50;;;;;;5014371;28;20653;-86
2022/11/18 00:49:18;;;;;;;4.90;2.92;;;7.40;59.80;;;;;;5014879;28;20029;-85
2022/11/18 00:51:44;;;;;;;2.65;2.40;;;7.40;59.70;;;;;;5012889;28;20496;-84
2022/11/18 00:54:11;;;;;;;3.42;2.30;;;7.40;59.80;;;;;;5014607;28;20266;-85
2022/11/18 00:56:37;;;;;;;2.70;2.00;;;7.40;59.80;;;;;;5018565;28;20060;-84
2022/11/18 00:59:03;;;;;;;2.72;2.20;;;7.40;60.20;;;;;;5014837;28;20467;-84
2022/11/18 01:01:29;;;;;;;4.18;2.25;;;7.40;60.30;;;;;;5000445;28;20041;-85
2022/11/18 01:03:55;;;;;;;5.13;2.47;;;7.40;60.20;;;;;;5015161;28;20052;-82
2022/11/18 01:06:20;;;;;;;2.45;2.05;;;7.40;60.00;;;;;;5013188;28;20416;-83
2022/11/18 01:08:46;;;;;;;3.22;2.20;;;7.40;60.00;;;;;;5013866;28;20038;-84
2022/11/18 01:13:57;;;;;;;2.25;1.95;;;7.30;59.70;;;;;;5015290;28;20422;-84
2022/11/18 01:16:26;;;;;;;3.95;2.20;;;7.40;60.00;;;;;;5018224;28;20088;-87
2022/11/18 01:18:52;;;;;;;3.10;2.33;;;7.40;60.10;;;;;;5018385;28;20038;-89
2022/11/18 01:21:18;;;;;;;2.50;2.30;;;7.40;60.00;;;;;;5018573;28;20053;-90
2022/11/18 01:23:44;;;;;;;3.40;2.22;;;7.40;60.00;;;;;;5020453;28;20049;-90
2022/11/18 01:26:12;;;;;;;3.97;2.47;;;7.30;59.90;;;;;;5018989;28;20037;-87
2022/11/18 01:28:38;;;;;;;3.42;2.17;;;7.40;59.80;;;;;;5010869;28;20179;-91
2022/11/18 01:31:07;;;;;;;2.60;2.20;;;7.30;59.50;;;;;;4989756;28;20498;-86
2022/11/18 01:33:33;;;;;;;2.50;2.00;;;7.40;59.20;;;;;;4999681;28;20412;-79
2022/11/18 01:35:59;;;;;;;4.22;2.28;;;7.30;58.90;;;;;;5018579;28;20026;-78
2022/11/18 01:38:26;;;;;;;5.00;2.25;;;7.40;58.70;;;;;;5017509;28;20030;-78
2022/11/18 01:40:53;;;;;;;3.85;2.20;;;7.30;58.70;;;;;;5013960;28;20048;-78
2022/11/18 01:43:21;;;;;;;2.55;1.88;;;7.40;58.60;;;;;;5018514;28;20029;-78
2022/11/18 01:45:49;;;;;;;2.90;2.22;;;7.40;58.80;;;;;;5004524;28;20033;-78
2022/11/18 01:48:30;;;;;;;2.78;2.05;;;7.40;59.00;;;;;;5017654;28;20579;-78
2022/11/18 01:51:07;;;;;;;2.35;2.00;;;7.40;58.70;;;;;;5017848;28;20040;-79
2022/11/18 01:53:51;;;;;;;3.15;2.40;;;7.40;58.60;;;;;;5017552;28;20042;-78
2022/11/18 01:56:25;;;;;;;2.70;2.20;;;7.40;58.60;;;;;;5012095;28;20040;-78
2022/11/18 01:59:08;;;;;;;2.25;1.90;;;7.40;58.40;;;;;;5018430;28;20030;-78
2022/11/18 02:01:34;;;;;;;3.67;2.33;;;7.30;58.10;;;;;;5017410;28;20407;-78
2022/11/18 02:04:00;;;;;;;3.10;2.03;;;7.30;58.10;;;;;;5009933;28;20029;-78
2022/11/18 02:06:26;;;;;;;2.20;2.00;;;7.40;58.30;;;;;;5018493;28;20044;-78
2022/11/18 02:08:53;;;;;;;3.08;2.33;;;7.30;58.30;;;;;;5017645;28;20776;-78
2022/11/18 02:14:06;;;;;;;2.50;2.00;;;7.40;58.50;;;;;;5018457;28;20517;-78
2022/11/18 02:16:59;;;;;;;2.38;2.08;;;7.40;58.70;;;;;;5017910;28;20044;-78
2022/11/18 02:19:31;;;;;;;3.42;2.10;;;7.40;58.40;;;;;;5018064;28;20425;-78
2022/11/18 02:21:57;;;;;;;2.67;1.95;;;7.40;58.60;;;;;;4999481;28;20049;-78
2022/11/18 02:24:29;;;;;;;3.15;2.22;;;7.40;58.40;;;;;;4998062;28;20137;-78
2022/11/18 02:27:13;;;;;;;2.78;2.08;;;7.40;58.40;;;;;;5017789;28;20033;-78
2022/11/18 02:29:54;;;;;;;3.83;2.08;;;7.40;58.40;;;;;;5017003;28;20064;-77
2022/11/18 02:32:28;;;;;;;3.42;2.50;;;7.40;58.40;;;;;;5012286;28;20096;-77
2022/11/18 02:35:07;;;;;;;2.63;2.30;;;7.40;58.40;;;;;;5015375;28;20510;-78
2022/11/18 02:37:44;;;;;;;2.67;1.98;;;7.40;58.50;;;;;;5014999;28;20038;-78
2022/11/18 02:40:21;;;;;;;2.75;1.90;;;7.40;58.50;;;;;;5017759;28;20508;-78
2022/11/18 02:42:54;;;;;;;6.03;2.25;;;7.40;58.70;;;;;;5004488;28;20062;-78
2022/11/18 02:45:21;;;;;;;2.13;1.88;;;7.40;59.00;;;;;;5016880;28;20509;-77
2022/11/18 02:47:49;;;;;;;2.42;2.03;;;7.40;59.20;;;;;;5017379;28;20503;-78
2022/11/18 02:50:20;;;;;;;2.47;2.25;;;7.40;59.30;;;;;;5011338;28;20025;-78
2022/11/18 02:52:52;;;;;;;3.42;2.30;;;7.40;59.30;;;;;;5017203;28;20034;-79
2022/11/18 02:55:19;;;;;;;2.60;2.17;;;7.40;59.00;;;;;;5012508;28;20038;-79
2022/11/18 02:57:50;;;;;;;2.60;1.83;;;7.40;58.80;;;;;;5001863;28;20038;-80
2022/11/18 03:00:16;;;;;;;3.38;1.98;;;7.50;58.70;;;;;;5016063;28;20520;-77
2022/11/18 03:02:47;;;;;;;2.55;2.25;;;7.50;58.70;;;;;;5009381;28;20034;-76
2022/11/18 03:05:35;;;;;;;3.83;2.25;;;7.40;58.70;;;;;;5015590;28;20112;-77
2022/11/18 03:08:11;;;;;;;2.38;2.17;;;7.40;58.80;;;;;;5011167;28;20453;-76
2022/11/18 03:11:24;;;;;;;2.92;2.20;;;7.50;58.70;;;;;;4997553;28;20053;-76
2022/11/18 03:14:08;;;;;;;2.35;2.08;;;7.50;58.60;;;;;;5014072;28;20057;-77
2022/11/18 03:16:59;;;;;;;2.25;2.05;;;7.50;58.60;;;;;;5014860;28;20057;-77
2022/11/18 03:19:37;;;;;;;2.13;1.90;;;7.50;58.60;;;;;;4996942;28;20097;-77
2022/11/18 03:22:18;;;;;;;2.63;2.10;;;7.50;58.50;;;;;;5008398;28;20038;-77
2022/11/18 03:24:56;;;;;;;2.90;2.08;;;7.50;58.40;;;;;;5016564;28;20049;-76
2022/11/18 03:27:29;;;;;;;2.55;1.90;;;7.40;58.20;;;;;;5016579;28;20045;-77
2022/11/18 03:30:03;;;;;;;3.15;1.67;;;7.40;58.30;;;;;;5015181;28;20042;-76
2022/11/18 03:32:31;;;;;;;3.50;2.30;;;7.50;58.60;;;;;;5016979;28;20048;-76
2022/11/18 03:35:15;;;;;;;2.50;1.83;;;7.50;58.60;;;;;;5002327;28;20033;-77
2022/11/18 03:37:43;;;;;;;3.20;2.42;;;7.50;58.60;;;;;;5015751;28;20457;-76
2022/11/18 03:40:23;;;;;;;2.63;2.10;;;7.50;58.40;;;;;;5014913;28;20079;-76
2022/11/18 03:42:55;;;;;;;2.33;2.05;;;7.40;58.50;;;;;;5016486;28;20470;-77
2022/11/18 03:45:36;;;;;;;3.35;2.42;;;7.50;58.80;;;;;;5015643;28;20171;-77
2022/11/18 03:48:34;;;;;;;2.35;1.98;;;7.50;58.90;;;;;;5005200;28;20042;-77
2022/11/18 03:51:07;;;;;;;2.38;2.03;;;7.50;58.90;;;;;;4977406;28;20076;-77
2022/11/18 03:53:40;;;;;;;2.47;1.80;;;7.50;58.90;;;;;;5010404;28;20476;-79
2022/11/18 03:56:13;;;;;;;2.30;1.90;;;7.50;59.20;;;;;;4996846;28;20524;-79
2022/11/18 03:58:52;;;;;;;2.20;1.95;;;7.50;59.60;;;;;;5011538;28;20037;-80
2022/11/18 04:01:28;;;;;;;3.47;2.00;;;7.50;60.20;;;;;;4980101;28;20029;-82
2022/11/18 04:03:54;;;;;;;2.05;1.77;;;7.50;60.80;;;;;;5008804;28;20107;-77
2022/11/18 04:06:33;;;;;;;2.58;2.25;;;7.50;61.10;;;;;;5014245;28;20084;-82
2022/11/18 04:09:32;;;;;;;2.00;1.80;;;7.50;61.30;;;;;;4996913;28;20086;-81
2022/11/18 04:12:04;;;;;;;2.17;1.95;;;7.50;61.40;;;;;;5013126;28;20048;-82
2022/11/18 04:14:34;;;;;;;2.33;2.10;;;7.50;61.60;;;;;;5013934;28;20076;-81
2022/11/18 04:17:07;;;;;;;3.03;1.70;;;7.60;61.60;;;;;;5002705;28;20051;-80
2022/11/18 04:19:33;;;;;;;2.60;1.70;;;7.60;61.20;;;;;;5011381;28;20041;-81
2022/11/18 04:21:59;;;;;;;3.47;2.00;;;7.60;61.20;;;;;;5028368;28;20041;-82
2022/11/18 04:24:25;;;;;;;3.17;2.35;;;7.60;61.00;;;;;;5010578;28;20030;-84
2022/11/18 04:26:51;;;;;;;2.40;1.98;;;7.60;61.00;;;;;;5011953;28;20072;-83
2022/11/18 04:29:17;;;;;;;1.70;1.60;;;7.60;60.90;;;;;;4989278;28;20034;-77
2022/11/18 04:31:43;;;;;;;1.73;1.60;;;7.60;61.50;;;;;;5013969;28;20046;-76
2022/11/18 04:34:09;;;;;;;2.42;1.88;;;7.60;60.80;;;;;;5014049;28;20030;-76
2022/11/18 04:36:35;;;;;;;3.00;1.80;;;7.70;60.90;;;;;;5014252;28;20029;-77
2022/11/18 04:39:00;;;;;;;1.73;1.58;;;7.70;60.80;;;;;;5015257;28;20058;-75
2022/11/18 04:44:13;;;;;;;2.97;1.77;;;7.70;60.90;;;;;;5015043;28;20048;-74
2022/11/18 04:46:40;;;;;;;2.00;1.63;;;7.70;61.00;;;;;;5014483;28;20044;-74
2022/11/18 04:49:07;;;;;;;3.33;2.28;;;7.70;60.90;;;;;;5014194;28;20095;-74
2022/11/18 04:51:33;;;;;;;1.95;1.70;;;7.70;61.00;;;;;;5020361;28;20040;-75
2022/11/18 04:53:59;;;;;;;2.17;1.60;;;7.70;61.30;;;;;;5014566;28;20034;-75
2022/11/18 04:56:25;;;;;;;3.25;1.75;;;7.70;61.50;;;;;;5004972;28;20120;-74
2022/11/18 04:58:51;;;;;;;5.32;2.00;;;7.70;61.70;;;;;;5015444;28;20029;-74
2022/11/18 05:01:17;;;;;;;2.45;1.88;;;7.80;62.00;;;;;;5014286;28;20432;-74
2022/11/18 05:03:43;;;;;;;2.30;1.88;;;7.70;61.90;;;;;;5013370;28;20041;-75
2022/11/18 05:06:08;;;;;;;3.13;2.15;;;7.80;61.90;;;;;;5014557;28;20083;-73
2022/11/18 05:08:34;;;;;;;2.53;2.33;;;7.80;61.90;;;;;;5014291;28;20034;-73
2022/11/18 05:13:50;;;;;;;3.95;1.90;;;7.80;62.00;;;;;;5014541;28;20103;-74
2022/11/18 05:16:17;;;;;;;4.43;1.90;;;7.80;61.90;;;;;;5015098;28;20038;-73
2022/11/18 05:18:42;;;;;;;2.28;2.08;;;7.80;62.10;;;;;;5014225;28;20040;-73
2022/11/18 05:21:08;;;;;;;3.53;2.00;;;7.80;62.20;;;;;;5014974;28;20030;-73
2022/11/18 05:23:34;;;;;;;6.88;2.17;;;7.90;62.90;;;;;;5014400;28;20030;-74
2022/11/18 05:26:05;;;;;;;3.40;2.00;;;7.80;62.20;;;;;;5014964;28;20563;-73
2022/11/18 05:28:31;;;;;;;3.10;2.22;;;7.90;62.10;;;;;;5014478;28;20045;-73
2022/11/18 05:30:57;;;;;;;2.45;1.67;;;7.90;62.00;;;;;;5014092;28;20467;-73
2022/11/18 05:33:23;;;;;;;4.68;1.85;;;7.90;62.10;;;;;;5014237;28;20081;-73
2022/11/18 05:35:49;;;;;;;3.95;2.00;;;7.90;62.20;;;;;;5014528;28;20091;-74
2022/11/18 05:38:15;;;;;;;3.42;2.10;;;7.90;62.20;;;;;;5014295;28;20039;-73
2022/11/18 05:40:44;;;;;;;4.05;2.00;;;7.90;61.80;;;;;;5012942;28;20124;-73
2022/11/18 05:43:10;;;;;;;3.53;2.10;;;7.90;61.30;;;;;;5014535;28;20044;-73
2022/11/18 05:45:36;;;;;;;2.60;2.10;;;7.90;61.50;;;;;;5012680;28;20038;-73
2022/11/18 05:48:03;;;;;;;3.33;1.67;;;7.90;61.50;;;;;;5013587;28;20040;-76
2022/11/18 05:50:34;;;;;;;3.05;1.92;;;7.90;61.30;;;;;;4992656;28;20496;-79
2022/11/18 05:53:01;;;;;;;3.80;2.13;;;7.90;61.30;;;;;;5015359;28;20073;-78
2022/11/18 05:55:35;;;;;;;3.78;2.28;;;7.90;60.90;;;;;;5012309;28;20057;-78
2022/11/18 05:58:01;;;;;;;3.28;2.50;;;7.90;58.90;;;;;;5015173;28;20121;-77
2022/11/18 06:00:28;;;;;;;3.38;2.47;;;7.80;57.30;;;;;;5019475;28;20130;-78
2022/11/18 06:02:55;;;;;;;3.22;2.60;;;7.80;56.40;;;;;;5021059;28;20034;-77
2022/11/18 06:05:23;;;;;;;4.53;2.28;;;7.70;55.50;;;;;;5019943;28;20053;-79
2022/11/18 06:07:49;;;;;;;2.17;1.95;;;7.70;55.00;;;;;;5015154;28;20037;-78
2022/11/18 06:10:22;;;;;;;3.65;2.33;;;7.60;54.70;;;;;;5016649;28;20037;-77
2022/11/18 06:12:51;;;;;;;2.70;2.50;;;7.50;54.20;;;;;;5032198;28;20141;-78
2022/11/18 06:15:26;;;;;;;3.60;2.67;;;7.50;53.90;;;;;;5018025;28;20050;-78
2022/11/18 06:18:02;;;;;;;2.92;1.95;;;7.40;53.10;;;;;;5016945;28;20156;-78
2022/11/18 06:20:28;;;;;;;3.22;2.40;;;7.30;52.20;;;;;;5005580;28;20132;-78
2022/11/18 06:22:56;;;;;;;2.90;2.60;;;7.30;51.90;;;;;;5023854;28;20030;-79
2022/11/18 06:25:23;;;;;;;3.22;2.60;;;7.20;51.50;;;;;;5025781;28;20038;-78
2022/11/18 06:27:50;;;;;;;5.00;2.60;;;7.10;51.40;;;;;;5026221;28;20033;-78
2022/11/18 06:30:17;;;;;;;4.07;3.08;;;7.20;53.90;;;;;;5022668;28;20034;-78
2022/11/18 06:32:43;;;;;;;3.40;2.72;;;6.90;50.70;;;;;;5027690;28;20419;-78
2022/11/18 06:35:09;;;;;;;3.33;2.95;;;6.90;51.30;;;;;;5025567;28;20037;-78
2022/11/18 06:37:35;;;;;;;4.57;3.13;;;6.80;51.90;;;;;;5031376;28;20092;-78
2022/11/18 06:40:01;;;;;;;3.42;2.70;;;6.80;51.40;;;;;;5024483;28;20037;-78
2022/11/18 06:45:12;;;;;;;4.27;3.70;;;6.70;51.50;;;;;;5017215;28;20044;-78
2022/11/18 06:47:38;;;;;;;4.18;3.03;;;6.50;51.60;;;;;;5017078;28;20045;-78
2022/11/18 06:50:04;;;;;;;3.97;2.95;;;6.50;51.80;;;;;;5013115;28;20064;-78
2022/11/18 06:52:30;;;;;;;3.97;3.08;;;6.50;51.80;;;;;;5013363;28;20040;-78
2022/11/18 06:54:56;;;;;;;4.18;3.05;;;6.40;52.50;;;;;;5016013;28;20045;-79
2022/11/18 06:57:22;;;;;;;3.15;2.85;;;6.40;52.70;;;;;;5016022;28;20026;-78
2022/11/18 06:59:48;;;;;;;4.90;3.47;;;6.30;52.60;;;;;;5012364;28;20113;-78
2022/11/18 07:02:14;;;;;;;4.53;3.20;;;6.40;53.40;;;;;;5015831;28;20527;-77
2022/11/18 07:04:40;;;;;;;4.30;3.35;;;6.30;53.80;;;;;;5018004;28;20032;-77
2022/11/18 07:07:07;;;;;;;3.55;3.15;;;6.30;54.10;;;;;;5014442;28;20038;-77
2022/11/18 07:09:36;;;;;;;4.32;2.97;;;6.30;54.30;;;;;;5015539;28;20033;-77
2022/11/18 07:12:04;;;;;;;4.38;3.55;;;6.20;54.50;;;;;;5016887;28;20042;-79
2022/11/18 07:14:31;;;;;;;4.40;3.42;;;6.30;54.80;;;;;;5014954;28;20049;-78
2022/11/18 07:16:57;;;;;;;3.28;2.95;;;6.20;54.80;;;;;;4989578;28;20120;-78
2022/11/18 07:19:23;;;;;;;4.70;3.35;;;6.20;54.90;;;;;;5016419;28;20120;-78
2022/11/18 07:21:49;;;;;;;5.30;3.35;;;6.20;54.90;;;;;;5016701;28;20041;-78
2022/11/18 07:24:15;;;;;;;4.10;3.63;;;6.20;54.90;;;;;;4981901;28;20030;-78
2022/11/18 07:26:41;;;;;;;4.63;3.25;;;6.20;54.90;;;;;;5016563;28;20053;-78
2022/11/18 07:29:08;;;;;;;4.63;3.72;;;6.20;54.80;;;;;;5016591;28;20393;-79
2022/11/18 07:31:39;;;;;;;4.93;3.28;;;6.20;54.70;;;;;;5017092;28;20076;-77
2022/11/18 07:34:06;;;;;;;4.65;3.53;;;6.20;54.60;;;;;;5015289;28;20030;-78
2022/11/18 07:36:32;;;;;;;4.90;3.40;;;6.20;54.60;;;;;;5017036;28;20754;-77
2022/11/18 07:38:59;;;;;;;3.30;3.00;;;6.20;54.70;;;;;;5017065;28;20120;-78
2022/11/18 07:41:28;;;;;;;4.03;3.05;;;6.20;54.70;;;;;;5016009;28;20037;-77
2022/11/18 07:43:55;;;;;;;5.20;3.20;;;6.20;54.70;;;;;;5015660;28;20108;-78
2022/11/18 07:46:25;;;;;;;5.00;3.40;;;6.20;54.70;;;;;;5014664;28;20034;-78
2022/11/18 07:48:53;;;;;;;4.35;3.20;;;6.20;54.80;;;;;;5014545;28;20040;-78
2022/11/18 07:51:22;;;;;;;3.95;2.85;;;6.20;54.80;;;;;;5015714;28;20492;-78
2022/11/18 07:53:48;;;;;;;5.28;3.10;;;6.20;54.90;;;;;;5015346;28;20116;-77
2022/11/18 07:56:14;;;;;;;4.80;3.25;;;6.20;54.80;;;;;;5015205;28;20026;-77
2022/11/18 07:58:41;;;;;;;4.55;3.85;;;6.20;54.80;;;;;;5017945;28;20021;-77
2022/11/18 08:01:17;;;;;;;6.60;3.22;;;6.20;54.80;;;;;;5015694;28;20039;-78
2022/11/18 08:03:44;;;;;;;3.65;3.05;;;6.20;55.00;;;;;;5015906;28;20034;-78
2022/11/18 08:06:11;;;;;;;5.45;3.50;;;6.30;55.00;;;;;;5016191;28;20512;-78
2022/11/18 08:08:37;;;;;;;6.10;3.42;;;6.20;54.90;;;;;;5016651;28;20034;-80
2022/11/18 08:11:06;;;;;;;4.60;3.17;;;6.30;55.00;;;;;;5016997;28;20124;-80
2022/11/18 08:13:33;;;;;;;5.28;3.20;;;6.30;55.00;;;;;;5015666;28;20093;-79
2022/11/18 08:15:59;;;;;;;3.33;2.90;;;6.20;54.80;;;;;;5014985;28;20060;-78
2022/11/18 08:18:27;;;;;;;4.60;3.28;;;6.30;54.60;;;;;;4995970;28;20066;-78
2022/11/18 08:20:53;;;;;;;4.10;3.03;;;6.20;54.20;;;;;;4991339;28;20527;-78
2022/11/18 08:23:19;;;;;;;4.13;2.75;;;6.20;54.20;;;;;;5015574;28;20468;-77
2022/11/18 08:25:46;;;;;;;3.58;2.95;;;6.20;54.10;;;;;;5015178;28;20113;-78
2022/11/18 08:28:13;;;;;;;4.75;3.00;;;6.20;53.90;;;;;;5014180;28;20521;-78
2022/11/18 08:30:40;;;;;;;4.28;3.17;;;6.20;53.90;;;;;;5019174;28;20038;-78
2022/11/18 08:33:06;;;;;;;4.75;3.17;;;6.20;53.90;;;;;;5012090;28;20038;-78
2022/11/18 08:35:32;;;;;;;4.07;3.10;;;6.20;53.90;;;;;;5016590;28;20091;-78
2022/11/18 08:37:59;;;;;;;3.17;2.75;;;6.20;53.90;;;;;;5014936;28;20033;-80
2022/11/18 08:40:25;;;;;;;4.65;2.92;;;6.20;53.70;;;;;;5013399;28;20042;-77
2022/11/18 08:42:51;;;;;;;4.35;3.08;;;6.20;53.50;;;;;;5013934;28;20037;-79
2022/11/18 08:45:18;;;;;;;4.07;3.13;;;6.20;53.60;;;;;;5014348;28;20092;-79
2022/11/18 08:47:44;;;;;;;4.68;3.45;;;6.20;53.60;;;;;;5015022;28;20034;-78
2022/11/18 08:50:11;;;;;;;3.80;2.78;;;6.20;53.50;;;;;;5015583;28;20377;-79
2022/11/18 08:52:37;;;;;;;3.45;2.80;;;6.20;53.40;;;;;;5014806;28;20610;-81
2022/11/18 08:55:04;;;;;;;4.43;3.08;;;6.20;53.40;;;;;;5015470;28;20034;-80
2022/11/18 08:57:30;;;;;;;4.45;3.20;;;6.20;53.60;;;;;;5015100;28;20500;-78
2022/11/18 08:59:56;;;;;;;5.32;3.63;;;6.20;54.10;;;;;;4996535;28;20040;-77
2022/11/18 09:02:22;;;;;;;4.18;3.25;;;6.20;55.00;;;;;;5013489;28;20033;-77
2022/11/18 09:04:50;;;;;;;4.45;3.40;;;6.20;55.60;;;;;;4998264;28;20427;-77
2022/11/18 09:07:17;;;;;;;5.70;3.63;;;6.20;56.00;;;;;;5014815;28;20046;-78
2022/11/18 09:09:43;;;;;;;4.72;3.30;;;6.20;56.10;;;;;;5015143;28;20034;-78
2022/11/18 09:12:13;;;;;;;4.07;3.08;;;6.10;56.00;;;;;;5013895;28;20617;-78
2022/11/18 09:14:44;;;;;;;4.75;3.15;;;6.20;56.00;;;;;;5015196;28;20048;-78
2022/11/18 09:17:10;;;;;;;4.20;3.25;;;6.10;56.00;;;;;;5015292;28;20116;-78
2022/11/18 09:19:36;;;;;;;4.93;3.20;;;6.20;56.30;;;;;;5015164;28;20048;-78
2022/11/18 09:22:03;;;;;;;3.95;2.85;;;6.20;56.30;;;;;;5013967;28;20405;-78
2022/11/18 09:24:29;;;;;;;3.42;2.85;;;6.20;56.10;;;;;;5014783;28;20033;-78
2022/11/18 09:26:55;;;;;;;4.07;3.15;;;6.20;55.70;;;;;;5014532;28;20124;-79
2022/11/18 09:29:25;;;;;;;6.47;4.03;;;6.20;55.90;;;;;;5014924;28;20033;-79
2022/11/18 09:31:54;;;;;;;4.90;3.80;;;6.20;56.00;;;;;;5012883;28;20091;-79
2022/11/18 09:34:20;;;;;;;5.28;3.65;;;6.20;56.10;;;;;;5018056;28;20116;-78
2022/11/18 09:36:47;;;;;;;4.90;3.45;;;6.20;56.10;;;;;;5018183;28;20045;-79
2022/11/18 09:39:13;;;;;;;3.63;3.15;;;6.20;56.10;;;;;;5018340;28;21526;-78
2022/11/18 09:41:46;;;;;;;4.28;3.03;;;6.20;56.10;;;;;;5018002;28;20034;-79
2022/11/18 09:44:39;;;;;;;4.13;3.20;;;6.20;56.10;;;;;;5002834;28;20169;-79
2022/11/18 09:47:26;;;;;;;4.60;3.55;;;6.20;56.00;;;;;;4999598;28;20080;-78
2022/11/18 09:49:54;;;;;;;4.65;3.15;;;6.20;56.00;;;;;;5018100;28;20061;-79
2022/11/18 09:52:35;;;;;;;4.60;2.97;;;6.20;56.00;;;;;;5016733;28;20476;-79
2022/11/18 09:55:10;;;;;;;4.63;3.30;;;6.20;56.00;;;;;;5018163;28;20030;-78
2022/11/18 09:57:42;;;;;;;5.85;3.50;;;6.30;56.00;;;;;;5005179;28;20173;-79
2022/11/18 10:00:24;;;;;;;4.90;3.03;;;6.20;55.90;;;;;;5003785;28;20487;-78
2022/11/18 10:03:11;;;;;;;3.60;2.92;;;6.30;55.80;;;;;;5016777;28;20180;-79
2022/11/18 10:05:58;;;;;;;4.43;3.15;;;6.30;55.60;;;;;;5017548;28;20030;-79
2022/11/18 10:08:30;;;;;;;3.78;3.00;;;6.30;55.60;;;;;;4987609;28;20497;-79
2022/11/18 10:11:16;;;;;;;4.95;3.30;;;6.30;55.70;;;;;;5017996;28;21007;-79
2022/11/18 10:14:03;;;;;;;4.68;3.22;;;6.30;55.60;;;;;;5017508;28;20049;-78
2022/11/18 10:17:01;;;;;;;3.40;2.85;;;6.30;55.50;;;;;;5018504;28;20029;-79
2022/11/18 10:20:11;;;;;;;3.75;3.08;;;6.30;55.50;;;;;;5005015;28;20038;-79
2022/11/18 10:23:27;;;;;;;3.53;2.92;;;6.30;55.70;;;;;;4982275;28;20120;-79
2022/11/18 10:25:53;;;;;;;4.90;3.20;;;6.30;55.70;;;;;;4950624;28;20046;-79
2022/11/18 10:28:28;;;;;;;3.72;2.90;;;6.30;55.70;;;;;;4951155;28;20039;-79
2022/11/18 10:31:07;;;;;;;3.80;3.28;;;6.30;55.60;;;;;;4951463;28;20038;-78
2022/11/18 10:33:34;;;;;;;3.72;2.92;;;6.30;55.60;;;;;;4950902;28;20063;-77
2022/11/18 10:36:25;;;;;;;4.55;3.03;;;6.30;55.60;;;;;;4951485;28;20446;-80
2022/11/18 10:39:15;;;;;;;3.58;2.90;;;6.30;55.60;;;;;;4949920;28;20130;-79
2022/11/18 10:41:48;;;;;;;4.38;3.38;;;6.30;55.40;;;;;;4950987;28;20078;-80
2022/11/18 10:44:27;;;;;;;5.63;4.00;;;6.30;55.30;;;;;;4949972;28;20031;-80
2022/11/18 10:46:53;;;;;;;5.07;3.38;;;6.30;55.40;;;;;;4967231;28;20497;-79
2022/11/18 10:49:19;;;;;;;5.13;3.20;;;6.30;55.40;;;;;;4950171;28;20414;-80
2022/11/18 10:52:02;;;;;;;4.10;3.20;;;6.30;55.30;;;;;;4951114;28;20043;-80
2022/11/18 10:54:28;;;;;;;4.07;3.00;;;6.30;55.30;;;;;;4951788;28;20091;-78
2022/11/18 10:57:04;;;;;;;3.97;3.10;;;6.30;55.30;;;;;;4951051;28;20466;-78
2022/11/18 10:59:51;;;;;;;3.85;3.00;;;6.30;55.40;;;;;;4952040;28;20041;-78
2022/11/18 11:02:30;;;;;;;3.88;2.90;;;6.30;55.40;;;;;;5001065;28;20141;-78
2022/11/18 11:04:58;;;;;;;3.53;3.05;;;6.30;55.40;;;;;;5015989;28;20041;-78
2022/11/18 11:07:35;;;;;;;3.75;2.70;;;6.40;55.40;;;;;;5016277;28;20521;-78
2022/11/18 11:10:22;;;;;;;3.42;2.85;;;6.40;55.40;;;;;;5012898;28;20045;-78
2022/11/18 11:13:03;;;;;;;3.47;2.65;;;6.30;55.40;;;;;;5017067;28;20030;-78
2022/11/18 11:15:46;;;;;;;4.13;3.00;;;6.30;55.30;;;;;;5015115;28;20067;-79
2022/11/18 11:21:26;;;;;;;4.38;3.13;;;6.30;55.30;;;;;;5011779;28;20033;-78
2022/11/18 11:23:53;;;;;;;4.10;3.08;;;6.30;55.30;;;;;;5018248;28;20041;-78
2022/11/18 11:26:28;;;;;;;4.68;3.28;;;6.30;55.40;;;;;;5016778;28;20099;-78
2022/11/18 11:29:00;;;;;;;4.40;3.00;;;6.30;55.40;;;;;;5014283;28;20034;-78
2022/11/18 11:31:48;;;;;;;5.43;3.35;;;6.30;55.60;;;;;;5015153;28;20081;-78
2022/11/18 11:34:31;;;;;;;5.00;3.25;;;6.30;55.60;;;;;;4997686;28;20141;-79
2022/11/18 11:37:24;;;;;;;3.55;2.65;;;6.30;55.80;;;;;;5017467;28;20045;-78
2022/11/18 11:39:56;;;;;;;3.45;2.90;;;6.30;56.00;;;;;;5015129;28;20040;-77
2022/11/18 11:42:40;;;;;;;3.88;3.10;;;6.30;56.10;;;;;;5015785;28;20046;-79
2022/11/18 11:45:22;;;;;;;4.68;2.95;;;6.30;56.10;;;;;;5015524;28;20096;-77
2022/11/18 11:48:03;;;;;;;3.58;3.03;;;6.30;56.20;;;;;;5015096;28;20437;-78
2022/11/18 11:50:54;;;;;;;5.00;3.33;;;6.30;56.50;;;;;;5015518;28;20069;-78
2022/11/18 11:53:45;;;;;;;4.22;2.85;;;6.30;56.60;;;;;;5017582;28;20526;-78
2022/11/18 11:56:41;;;;;;;4.50;3.05;;;6.30;56.70;;;;;;5013878;28;20026;-77
2022/11/18 11:59:33;;;;;;;3.83;3.17;;;6.30;56.60;;;;;;4994021;28;20045;-78
2022/11/18 12:02:21;;;;;;;4.65;3.13;;;6.30;56.70;;;;;;5031352;28;20072;-78
2022/11/18 12:05:06;;;;;;;3.60;2.72;;;6.30;56.90;;;;;;5014316;28;20129;-78
2022/11/18 12:07:41;;;;;;;5.32;3.47;;;6.40;57.00;;;;;;5015793;28;20103;-76
2022/11/18 12:10:25;;;;;;;4.10;2.97;;;6.40;57.00;;;;;;5012966;28;20499;-74
2022/11/18 12:13:02;;;;;;;4.50;3.05;;;6.40;57.20;;;;;;5014952;28;20041;-81
2022/11/18 12:15:37;;;;;;;5.53;2.80;;;6.40;57.80;;;;;;5015014;28;20432;-83
2022/11/18 12:18:20;;;;;;;4.65;3.03;;;6.40;58.20;;;;;;5000273;28;20065;-81
2022/11/18 12:20:48;;;;;;;4.63;2.80;;;6.50;59.20;;;;;;5003136;28;20541;-85
2022/11/18 12:23:20;;;;;;;4.80;2.42;;;6.50;59.30;;;;;;4998268;28;20037;-82
2022/11/18 12:25:52;;;;;;;3.83;2.88;;;6.50;59.30;;;;;;5016179;28;20091;-81
2022/11/18 12:28:40;;;;;;;3.13;2.47;;;6.60;59.10;;;;;;5016750;28;20057;-81
2022/11/18 12:31:18;;;;;;;3.58;2.83;;;6.60;58.90;;;;;;5011367;28;20425;-81
2022/11/18 12:33:53;;;;;;;5.35;3.05;;;6.60;58.80;;;;;;5012764;28;20042;-85
2022/11/18 12:36:32;;;;;;;4.25;2.83;;;6.70;59.00;;;;;;5016776;28;20044;-81
2022/11/18 12:39:24;;;;;;;3.80;2.78;;;6.70;59.20;;;;;;5015804;28;20065;-83
2022/11/18 12:44:40;;;;;;;5.03;2.80;;;6.80;59.50;;;;;;5016273;28;20500;-85
2022/11/18 12:47:11;;;;;;;4.50;2.90;;;6.70;59.40;;;;;;5020111;28;20038;-83
2022/11/18 12:49:37;;;;;;;6.43;3.00;;;6.80;59.60;;;;;;4996800;28;20038;-85
2022/11/18 12:52:24;;;;;;;5.78;3.15;;;6.80;59.70;;;;;;4997958;28;20532;-85
2022/11/18 12:54:50;;;;;;;7.32;2.88;;;6.80;59.90;;;;;;5015934;28;20033;-84
2022/11/18 12:57:28;;;;;;;6.38;2.88;;;6.80;60.00;;;;;;5018414;28;20033;-89
2022/11/18 12:59:54;;;;;;;5.30;2.90;;;6.90;60.30;;;;;;5018132;28;20057;-84
2022/11/18 13:02:23;;;;;;;5.60;2.80;;;6.90;60.30;;;;;;5002682;28;20037;-88
2022/11/18 13:05:10;;;;;;;5.35;2.80;;;6.90;60.50;;;;;;5013083;28;20034;-88
2022/11/18 13:10:38;;;;;;;6.78;2.75;;;6.90;60.80;;;;;;5020603;28;19921;-85
2022/11/18 13:13:04;;;;;;;5.60;3.15;;;6.90;60.80;;;;;;5004658;28;20034;-88
2022/11/18 13:18:16;;;;;;;4.28;2.70;;;7.00;61.30;;;;;;5019018;28;20041;-87
2022/11/18 13:20:43;;;;;;;4.35;2.90;;;7.00;61.40;;;;;;5010127;28;20101;-89
2022/11/18 13:26:02;;;;;;;6.03;3.17;;;7.00;61.30;;;;;;4997220;28;20047;-82
2022/11/18 13:28:52;;;;;;;6.65;2.95;;;7.00;61.60;;;;;;5018365;28;20452;-82
2022/11/18 13:31:30;;;;;;;4.32;3.05;;;7.00;60.80;;;;;;5015021;28;20049;-83
2022/11/18 13:34:20;;;;;;;3.78;2.72;;;7.00;60.70;;;;;;4992512;28;20052;-84
2022/11/18 13:36:48;;;;;;;4.40;3.00;;;7.00;60.40;;;;;;4994837;28;20074;-81
2022/11/18 13:39:29;;;;;;;5.72;3.10;;;7.00;60.40;;;;;;4985738;28;20572;-84
2022/11/18 13:42:02;;;;;;;5.18;2.50;;;7.00;60.30;;;;;;5018174;28;20120;-85
2022/11/18 13:44:32;;;;;;;3.58;2.63;;;7.00;60.00;;;;;;5018377;28;20046;-88
2022/11/18 13:47:19;;;;;;;13.77;2.92;;;7.10;60.00;;;;;;5018497;28;20034;-84
2022/11/18 13:50:14;;;;;;;4.50;2.60;;;7.10;60.00;;;;;;5019159;28;20034;-83
2022/11/18 13:53:02;;;;;;;3.03;2.72;;;7.10;59.80;;;;;;5020770;28;20304;-86
2022/11/18 13:55:40;;;;;;;3.90;2.60;;;7.10;59.70;;;;;;5018497;28;20564;-79
2022/11/18 13:58:32;;;;;;;3.92;3.05;;;7.10;59.80;;;;;;5020224;28;20188;-83